createdAt,value
2022-09-15T00:01:29.116Z,9.40
2022-09-15T00:11:36.237Z,10.30
2022-09-15T00:21:43.845Z,12.40
2022-09-15T00:31:49.450Z,13.50
2022-09-15T00:41:55.046Z,14.80
2022-09-15T00:52:05.662Z,14.50
2022-09-15T01:02:17.062Z,14.00
2022-09-15T01:12:25.098Z,14.30
2022-09-15T01:22:42.114Z,11.30
2022-09-15T01:33:20.834Z,8.70
2022-09-15T01:43:29.588Z,8.50
2022-09-15T01:53:36.587Z,9.60
2022-09-15T02:03:47.051Z,8.60
2022-09-15T02:14:03.770Z,9.60
2022-09-15T02:24:13.658Z,9.10
2022-09-15T02:34:22.725Z,8.00
2022-09-15T02:44:30.580Z,8.00
2022-09-15T02:54:36.268Z,9.70
2022-09-15T03:04:41.930Z,8.00
2022-09-15T03:14:47.920Z,8.60
2022-09-15T03:24:53.534Z,8.30
2022-09-15T03:34:59.356Z,8.90
2022-09-15T03:45:05.395Z,6.70
2022-09-15T03:55:11.802Z,6.90
2022-09-15T04:05:17.432Z,5.80
2022-09-15T04:15:23.717Z,5.40
2022-09-15T04:25:29.573Z,4.80
2022-09-15T04:35:35.214Z,3.70
2022-09-15T04:45:40.994Z,3.80
2022-09-15T04:55:46.646Z,3.10
2022-09-15T05:05:52.540Z,3.50
2022-09-15T05:16:04.012Z,3.50
2022-09-15T05:26:13.368Z,4.00
2022-09-15T05:36:21.367Z,3.30
2022-09-15T05:46:27.869Z,4.00
2022-09-15T05:56:34.086Z,3.90
2022-09-15T06:06:39.746Z,4.90
2022-09-15T06:16:45.805Z,4.80
2022-09-15T06:26:51.539Z,3.80
2022-09-15T06:36:57.194Z,4.60
2022-09-15T06:47:02.906Z,5.70
2022-09-15T06:57:08.679Z,4.40
2022-09-15T07:07:14.281Z,4.10
2022-09-15T07:17:19.925Z,3.30
2022-09-15T07:27:30.230Z,3.30
2022-09-15T07:37:36.172Z,1.90
2022-09-15T07:47:41.756Z,2.00
2022-09-15T07:57:47.458Z,2.70
2022-09-15T08:07:53.072Z,3.50
2022-09-15T08:17:58.883Z,2.00
2022-09-15T08:28:05.238Z,2.20
2022-09-15T08:38:11.182Z,1.20
2022-09-15T08:48:21.389Z,1.90
2022-09-15T08:58:29.734Z,1.70
2022-09-15T09:08:52.245Z,1.90
2022-09-15T09:19:22.505Z,2.00
2022-09-15T09:29:35.814Z,1.60
2022-09-15T09:39:41.432Z,1.80
2022-09-15T09:49:50.474Z,1.70
2022-09-15T09:59:56.662Z,2.50
2022-09-15T10:10:03.138Z,2.10
2022-09-15T10:20:25.620Z,1.40
2022-09-15T10:30:31.465Z,1.50
2022-09-15T10:40:47.122Z,1.60
2022-09-15T10:51:00.074Z,1.70
2022-09-15T11:01:23.094Z,1.10
2022-09-15T11:11:36.881Z,1.40
2022-09-15T11:21:48.372Z,1.40
2022-09-15T11:52:35.632Z,2.00
2022-09-15T12:02:48.694Z,1.70
2022-09-15T12:12:56.715Z,1.40
2022-09-15T12:33:54.706Z,1.40
2022-09-15T12:44:15.628Z,1.50
2022-09-15T12:54:28.409Z,2.10
2022-09-15T13:04:58.029Z,2.00
2022-09-15T13:15:06.324Z,1.90
2022-09-15T13:25:20.724Z,1.70
2022-09-15T13:35:39.898Z,1.60
2022-09-15T13:45:58.435Z,1.00
2022-09-15T13:56:07.909Z,1.50
2022-09-15T14:06:16.351Z,1.40
2022-09-15T14:16:30.135Z,1.60
2022-09-15T14:26:37.663Z,1.70
2022-09-15T14:36:43.514Z,1.40
2022-09-15T14:46:49.627Z,2.20
2022-09-15T14:56:57.838Z,1.20
2022-09-15T15:07:08.289Z,1.90
2022-09-15T15:17:29.000Z,1.50
2022-09-15T15:27:44.176Z,1.80
2022-09-15T15:37:50.678Z,1.80
2022-09-15T15:47:56.640Z,1.80
2022-09-15T15:58:02.241Z,2.00
2022-09-15T16:08:12.450Z,2.30
2022-09-15T16:18:18.406Z,3.00
2022-09-15T16:28:24.200Z,2.40
2022-09-15T16:38:29.989Z,2.30
2022-09-15T16:48:35.617Z,2.80
2022-09-15T16:58:41.641Z,2.90
2022-09-15T17:08:47.663Z,2.50
2022-09-15T17:18:53.415Z,3.00
2022-09-15T17:28:59.046Z,2.60
2022-09-15T17:39:04.844Z,3.00
2022-09-15T17:49:10.426Z,2.90
2022-09-15T17:59:16.337Z,2.80
2022-09-15T18:09:22.205Z,2.50
2022-09-15T18:19:27.799Z,3.10
2022-09-15T18:29:33.588Z,3.50
2022-09-15T18:39:39.205Z,3.40
2022-09-15T18:49:44.942Z,3.20
2022-09-15T18:59:50.906Z,4.00
2022-09-15T19:09:57.266Z,3.80
2022-09-15T19:20:03.403Z,4.10
2022-09-15T19:30:11.978Z,4.60
2022-09-15T19:40:18.246Z,5.30
2022-09-15T19:50:25.043Z,4.60
2022-09-15T20:00:30.786Z,4.90
2022-09-15T20:10:39.790Z,4.20
2022-09-15T20:20:45.771Z,4.30
2022-09-15T20:31:01.271Z,4.40
2022-09-15T20:41:09.404Z,4.00
2022-09-15T20:51:17.117Z,3.90
2022-09-15T21:01:24.836Z,4.10
2022-09-15T21:11:31.234Z,3.90
2022-09-15T21:21:37.328Z,3.10
2022-09-15T21:31:43.308Z,3.00
2022-09-15T21:41:49.806Z,2.10
2022-09-15T21:51:56.415Z,3.30
2022-09-15T22:02:02.506Z,2.10
2022-09-15T22:12:08.977Z,2.50
2022-09-15T22:22:14.769Z,2.60
2022-09-15T22:32:20.621Z,2.50
2022-09-15T22:42:27.796Z,2.40
2022-09-15T22:52:33.640Z,2.80
2022-09-15T23:02:39.494Z,3.40
2022-09-15T23:12:45.112Z,4.40
2022-09-15T23:22:50.733Z,3.80
2022-09-15T23:32:56.598Z,2.70
2022-09-15T23:43:02.373Z,2.90
2022-09-15T23:53:08.478Z,3.10
